Time;durP1;ratioP1;P1;durP2;ratioP2;P2;SDS_P1;SDS_P2;PMS_P1;PMS_P2;Temp;Humidity;BMP_temperature;BMP_pressure;BME280_temperature;BME280_humidity;BME280_pressure;Samples;Min_cycle;Max_cycle;Signal;HPM_P1;HPM_P2
2023/07/20 00:02:36;;;;;;;5.57;2.35;;;19.70;98.80;;;;;;5058694;28;20217;-71
2023/07/20 00:05:26;;;;;;;6.70;2.53;;;19.70;99.10;;;;;;5062736;28;20228;-70
2023/07/20 00:08:15;;;;;;;3.00;2.25;;;19.60;99.10;;;;;;5049574;28;20231;-71
2023/07/20 00:11:04;;;;;;;5.15;2.50;;;19.50;99.70;;;;;;5062594;28;20224;-71
2023/07/20 00:13:53;;;;;;;3.42;2.40;;;19.40;99.70;;;;;;5058674;28;20244;-72
2023/07/20 00:16:42;;;;;;;3.15;2.13;;;19.50;99.90;;;;;;5058075;28;20311;-72
2023/07/20 00:19:32;;;;;;;6.32;2.80;;;19.60;99.90;;;;;;5056658;28;20227;-71
2023/07/20 00:22:22;;;;;;;4.43;2.17;;;19.70;99.90;;;;;;5044103;28;20349;-71
2023/07/20 00:25:12;;;;;;;4.57;2.60;;;19.70;99.90;;;;;;5049296;28;20310;-72
2023/07/20 00:28:01;;;;;;;4.50;2.67;;;19.80;99.30;;;;;;5050488;28;20727;-72
2023/07/20 00:30:50;;;;;;;4.18;2.15;;;19.80;99.90;;;;;;5062288;28;20239;-70
2023/07/20 00:33:39;;;;;;;5.35;2.53;;;19.80;99.20;;;;;;5044513;28;20782;-70
2023/07/20 00:36:27;;;;;;;5.15;2.30;;;19.80;98.90;;;;;;5036421;28;20221;-70
2023/07/20 00:39:18;;;;;;;5.03;2.75;;;19.90;99.60;;;;;;5058311;28;20321;-71
2023/07/20 00:42:09;;;;;;;4.25;2.60;;;20.00;99.70;;;;;;5042236;28;20224;-71
2023/07/20 00:44:58;;;;;;;5.60;2.33;;;20.10;99.00;;;;;;5061986;28;20220;-72
2023/07/20 00:47:47;;;;;;;3.53;2.40;;;20.00;98.20;;;;;;5054887;28;20216;-70
2023/07/20 00:50:37;;;;;;;3.85;2.38;;;19.90;98.00;;;;;;5053735;28;21037;-70
2023/07/20 00:53:26;;;;;;;3.20;2.35;;;19.90;97.80;;;;;;5046502;28;20726;-70
2023/07/20 00:56:17;;;;;;;4.65;2.10;;;19.90;97.80;;;;;;5034013;28;20248;-71
2023/07/20 00:59:06;;;;;;;2.58;1.98;;;20.00;97.80;;;;;;5036059;28;20220;-70
2023/07/20 01:01:56;;;;;;;3.20;2.50;;;20.10;97.30;;;;;;5041510;28;20216;-71
2023/07/20 01:04:45;;;;;;;4.40;2.08;;;20.00;96.60;;;;;;5055612;28;20220;-71
2023/07/20 01:07:38;;;;;;;5.00;2.30;;;19.90;97.00;;;;;;5055152;28;20736;-72
2023/07/20 01:10:32;;;;;;;3.00;2.13;;;20.00;97.10;;;;;;5039329;28;20393;-71
2023/07/20 01:13:27;;;;;;;3.92;2.30;;;19.90;97.00;;;;;;5049159;28;20228;-71
2023/07/20 01:16:17;;;;;;;2.60;2.00;;;20.00;97.60;;;;;;5047681;28;20236;-72
2023/07/20 01:19:06;;;;;;;3.38;2.17;;;20.00;97.90;;;;;;5048096;28;20260;-71
2023/07/20 01:22:02;;;;;;;4.43;2.30;;;20.10;97.30;;;;;;5039514;28;20224;-71
2023/07/20 01:25:12;;;;;;;2.97;2.03;;;20.10;97.70;;;;;;5044055;28;20227;-72
2023/07/20 01:28:44;;;;;;;4.55;2.40;;;19.90;96.80;;;;;;5051136;28;20223;-72
2023/07/20 01:31:36;;;;;;;3.70;2.20;;;20.00;97.00;;;;;;5037403;28;20227;-72
2023/07/20 01:34:30;;;;;;;6.50;2.20;;;19.80;96.60;;;;;;5039174;28;20220;-72
2023/07/20 01:37:25;;;;;;;3.38;2.25;;;19.80;96.80;;;;;;5038399;28;20263;-72
2023/07/20 01:40:15;;;;;;;3.92;2.40;;;19.90;97.60;;;;;;5052263;28;20232;-71
2023/07/20 01:43:04;;;;;;;4.28;1.90;;;19.90;97.40;;;;;;5040350;28;20647;-71
2023/07/20 01:45:53;;;;;;;4.88;2.33;;;19.90;96.90;;;;;;5053216;28;20517;-71
2023/07/20 01:48:44;;;;;;;3.88;2.40;;;20.00;97.40;;;;;;5053082;28;20231;-71
2023/07/20 01:51:36;;;;;;;5.53;2.35;;;20.00;97.40;;;;;;5056402;28;20726;-71
2023/07/20 01:54:25;;;;;;;2.22;2.03;;;20.00;96.90;;;;;;5063961;28;20330;-71
2023/07/20 01:57:14;;;;;;;3.03;2.20;;;19.90;97.50;;;;;;5060202;28;20230;-71
2023/07/20 02:00:03;;;;;;;4.72;2.30;;;19.90;97.30;;;;;;5068284;28;20227;-71
2023/07/20 02:03:01;;;;;;;4.05;2.50;;;19.80;97.10;;;;;;5072489;28;20306;-72
2023/07/20 02:05:52;;;;;;;6.13;2.58;;;19.80;97.30;;;;;;5073131;28;20314;-72
2023/07/20 02:08:41;;;;;;;4.00;2.20;;;19.70;97.90;;;;;;5069340;28;20214;-71
2023/07/20 02:11:30;;;;;;;4.28;2.47;;;19.70;98.00;;;;;;5068906;28;20236;-71
2023/07/20 02:14:22;;;;;;;4.47;2.25;;;19.80;98.50;;;;;;5060800;28;20286;-71
2023/07/20 02:17:11;;;;;;;5.88;2.40;;;19.90;98.60;;;;;;5067007;28;20231;-71
2023/07/20 02:20:01;;;;;;;6.13;2.05;;;19.90;98.40;;;;;;5078875;28;20222;-70
2023/07/20 02:22:51;;;;;;;3.13;2.20;;;20.00;98.90;;;;;;5071417;28;20348;-71
2023/07/20 02:25:41;;;;;;;5.03;2.38;;;19.90;98.50;;;;;;5060902;28;20240;-71
2023/07/20 02:28:30;;;;;;;3.72;2.15;;;19.80;98.10;;;;;;5072533;28;20230;-71
2023/07/20 02:31:19;;;;;;;3.53;2.38;;;19.80;98.10;;;;;;5077666;28;20264;-71
2023/07/20 02:34:09;;;;;;;3.90;2.40;;;19.70;98.60;;;;;;5066216;28;20781;-70
2023/07/20 02:36:58;;;;;;;3.78;2.33;;;19.60;98.80;;;;;;5077274;28;20220;-71
2023/07/20 02:39:49;;;;;;;3.22;2.38;;;19.60;99.00;;;;;;5066107;28;21093;-71
2023/07/20 02:42:38;;;;;;;4.63;2.10;;;19.80;99.70;;;;;;5081154;28;20832;-71
2023/07/20 02:45:27;;;;;;;2.53;2.03;;;19.70;99.20;;;;;;5080903;28;20825;-71
2023/07/20 02:48:16;;;;;;;4.53;2.75;;;19.80;99.30;;;;;;5077426;28;20220;-71
2023/07/20 02:51:09;;;;;;;3.50;2.47;;;19.90;99.70;;;;;;5082307;28;20231;-71
2023/07/20 02:54:01;;;;;;;3.58;2.67;;;19.70;99.10;;;;;;5067207;28;20235;-71
2023/07/20 02:56:51;;;;;;;4.43;2.60;;;19.60;99.30;;;;;;5087191;28;20223;-70
2023/07/20 02:59:40;;;;;;;6.80;2.72;;;19.70;99.40;;;;;;5082741;28;20231;-71
2023/07/20 03:02:31;;;;;;;5.85;2.92;;;19.90;99.90;;;;;;5085392;28;20223;-69
2023/07/20 03:05:20;;;;;;;4.57;2.65;;;19.90;99.90;;;;;;5076691;28;20216;-69
2023/07/20 03:08:14;;;;;;;5.07;2.75;;;19.90;99.80;;;;;;5068368;28;20223;-69
2023/07/20 03:11:02;;;;;;;4.75;3.03;;;19.80;99.80;;;;;;5077871;28;20238;-68
2023/07/20 03:13:57;;;;;;;3.83;2.90;;;19.70;99.90;;;;;;5080051;28;20271;-68
2023/07/20 03:16:46;;;;;;;4.30;2.70;;;19.80;99.90;;;;;;5077524;28;20238;-69
2023/07/20 03:19:35;;;;;;;6.00;2.70;;;19.90;99.90;;;;;;5081260;28;20322;-70
2023/07/20 03:22:24;;;;;;;4.38;2.47;;;19.80;99.90;;;;;;5080248;28;20333;-70
2023/07/20 03:25:13;;;;;;;4.68;2.40;;;19.80;99.90;;;;;;5080333;28;20263;-70
2023/07/20 03:28:02;;;;;;;4.22;2.97;;;19.80;99.90;;;;;;5077816;28;20303;-70
2023/07/20 03:30:55;;;;;;;4.85;2.83;;;19.80;99.90;;;;;;5066141;28;20302;-70
2023/07/20 03:33:45;;;;;;;7.47;2.78;;;19.90;99.90;;;;;;5078466;28;20293;-70
2023/07/20 03:36:35;;;;;;;3.05;2.35;;;20.00;99.90;;;;;;5057809;28;20339;-70
2023/07/20 03:39:24;;;;;;;4.00;2.40;;;19.90;99.90;;;;;;5066562;28;20226;-69
2023/07/20 03:42:12;;;;;;;4.38;2.55;;;19.80;99.90;;;;;;5067604;28;20232;-69
2023/07/20 03:45:02;;;;;;;3.75;2.42;;;19.70;99.90;;;;;;5081240;28;20224;-69
2023/07/20 03:47:53;;;;;;;3.13;2.38;;;19.50;99.90;;;;;;5058521;28;20236;-70
2023/07/20 03:50:42;;;;;;;3.15;2.50;;;19.60;99.90;;;;;;5066330;28;20226;-72
2023/07/20 03:53:31;;;;;;;6.97;2.70;;;19.50;99.90;;;;;;5060133;28;20230;-71
2023/07/20 03:56:21;;;;;;;3.60;2.78;;;19.50;99.90;;;;;;5074180;28;20223;-71
2023/07/20 03:59:10;;;;;;;3.58;2.83;;;19.60;99.90;;;;;;5061805;28;20227;-71
2023/07/20 04:02:02;;;;;;;6.82;2.60;;;19.50;99.90;;;;;;5058941;28;20220;-72
2023/07/20 04:04:53;;;;;;;4.55;2.90;;;19.30;99.90;;;;;;5077246;28;20220;-72
2023/07/20 04:07:42;;;;;;;4.35;3.05;;;19.20;99.90;;;;;;5056645;28;20211;-71
2023/07/20 04:10:31;;;;;;;5.32;3.40;;;19.20;99.90;;;;;;5064657;28;20261;-70
2023/07/20 04:13:20;;;;;;;6.90;3.17;;;19.10;99.90;;;;;;5077918;28;21125;-70
2023/07/20 04:16:09;;;;;;;6.07;3.60;;;19.00;99.90;;;;;;5079813;28;20259;-71
2023/07/20 04:18:58;;;;;;;6.68;3.50;;;18.90;99.90;;;;;;5079374;28;20234;-70
2023/07/20 04:21:49;;;;;;;4.43;3.30;;;18.80;99.90;;;;;;5064551;28;20220;-70
2023/07/20 04:24:38;;;;;;;5.07;3.58;;;18.80;99.90;;;;;;5076022;28;20294;-70
2023/07/20 04:27:27;;;;;;;5.15;3.67;;;19.00;99.90;;;;;;5067487;28;20243;-70
2023/07/20 04:30:21;;;;;;;10.15;4.13;;;18.80;99.90;;;;;;5063558;28;20963;-71
2023/07/20 04:33:10;;;;;;;6.70;4.10;;;18.80;99.90;;;;;;5066855;28;20510;-70
2023/07/20 04:36:01;;;;;;;8.48;5.13;;;18.80;99.90;;;;;;5068502;28;20306;-70
2023/07/20 04:38:55;;;;;;;7.65;5.00;;;18.80;99.90;;;;;;5068427;28;20231;-71
2023/07/20 04:41:44;;;;;;;9.32;4.72;;;18.70;99.90;;;;;;5077345;28;20737;-69
2023/07/20 04:44:34;;;;;;;8.18;4.57;;;18.80;99.90;;;;;;5076603;28;20728;-71
2023/07/20 04:47:23;;;;;;;8.80;4.82;;;18.80;99.90;;;;;;5062361;28;20224;-70
2023/07/20 04:50:13;;;;;;;6.25;4.90;;;18.60;99.90;;;;;;5080487;28;20239;-71
2023/07/20 04:53:05;;;;;;;9.27;5.13;;;18.60;99.90;;;;;;5068307;28;20258;-71
2023/07/20 04:55:56;;;;;;;8.90;5.10;;;18.70;99.90;;;;;;5079542;28;20802;-71
2023/07/20 04:58:46;;;;;;;8.35;4.88;;;18.50;99.90;;;;;;5070661;28;20231;-71
2023/07/20 05:01:35;;;;;;;7.70;4.63;;;18.70;99.90;;;;;;5064868;28;20216;-72
2023/07/20 05:04:24;;;;;;;7.35;4.47;;;18.80;99.90;;;;;;5077335;28;20219;-73
2023/07/20 05:07:17;;;;;;;6.07;4.40;;;18.80;99.90;;;;;;5075744;28;20244;-72
2023/07/20 05:10:08;;;;;;;7.03;5.13;;;18.90;99.90;;;;;;5062738;28;20327;-71
2023/07/20 05:12:58;;;;;;;7.70;4.75;;;18.90;99.90;;;;;;5080934;28;20231;-71
2023/07/20 05:15:47;;;;;;;7.93;5.30;;;18.90;99.90;;;;;;5082486;28;20777;-70
2023/07/20 05:18:38;;;;;;;7.95;5.05;;;19.00;99.90;;;;;;5061622;28;20232;-70
2023/07/20 05:21:27;;;;;;;9.45;4.88;;;19.10;99.90;;;;;;5066083;28;20689;-72
2023/07/20 05:24:16;;;;;;;9.00;5.13;;;19.20;99.90;;;;;;5052297;28;20228;-71
2023/07/20 05:27:06;;;;;;;6.68;5.25;;;19.30;99.90;;;;;;5078543;28;20258;-72
2023/07/20 05:29:59;;;;;;;6.47;4.40;;;19.50;99.90;;;;;;5078060;28;20702;-69
2023/07/20 05:32:51;;;;;;;7.45;4.90;;;19.50;99.90;;;;;;5077492;28;20239;-70
2023/07/20 05:35:40;;;;;;;8.02;5.15;;;19.40;99.90;;;;;;5061898;28;20220;-71
2023/07/20 05:38:29;;;;;;;6.10;4.38;;;19.50;99.90;;;;;;5062669;28;20958;-69
2023/07/20 05:41:18;;;;;;;9.93;4.53;;;19.40;99.90;;;;;;5061469;28;20239;-70
2023/07/20 05:44:09;;;;;;;7.55;4.95;;;19.50;99.90;;;;;;5074659;28;20228;-70
2023/07/20 05:47:00;;;;;;;7.43;4.70;;;19.50;99.90;;;;;;5077920;28;20639;-69
2023/07/20 05:49:49;;;;;;;5.88;4.32;;;19.50;99.90;;;;;;5074065;28;20311;-70
2023/07/20 05:52:38;;;;;;;9.55;4.53;;;19.50;99.90;;;;;;5068839;28;20243;-75
2023/07/20 05:55:27;;;;;;;5.95;4.65;;;19.60;99.90;;;;;;5065956;28;20223;-69
2023/07/20 05:58:16;;;;;;;7.97;4.70;;;19.50;99.90;;;;;;5072153;28;20432;-69
2023/07/20 06:01:06;;;;;;;5.85;4.32;;;19.40;99.90;;;;;;5080179;28;20691;-70
2023/07/20 06:03:58;;;;;;;7.72;4.95;;;19.40;99.90;;;;;;5076465;28;20219;-69
2023/07/20 06:06:47;;;;;;;5.75;4.80;;;19.40;99.90;;;;;;5071996;28;21095;-69
2023/07/20 06:09:37;;;;;;;6.45;4.75;;;19.40;99.90;;;;;;5070986;28;20257;-70
2023/07/20 06:12:26;;;;;;;8.13;4.95;;;19.40;99.90;;;;;;5079944;28;20568;-69
2023/07/20 06:15:28;;;;;;;8.80;5.20;;;19.50;99.90;;;;;;5077022;28;20215;-69
2023/07/20 06:18:17;;;;;;;7.53;5.60;;;19.60;99.90;;;;;;5080435;28;20757;-68
2023/07/20 06:21:08;;;;;;;7.82;5.20;;;19.60;99.90;;;;;;5063022;28;20231;-69
2023/07/20 06:23:58;;;;;;;7.82;5.35;;;19.60;99.90;;;;;;5070949;28;20235;-69
2023/07/20 06:26:47;;;;;;;10.80;5.70;;;19.70;99.90;;;;;;5074946;28;20223;-72
2023/07/20 06:29:36;;;;;;;7.65;5.15;;;19.60;99.90;;;;;;5082623;28;20220;-72
2023/07/20 06:32:25;;;;;;;7.93;5.25;;;19.60;99.90;;;;;;5067384;28;20365;-68
2023/07/20 06:35:15;;;;;;;8.52;4.93;;;19.70;99.90;;;;;;5075755;28;20231;-69
2023/07/20 06:38:05;;;;;;;7.68;5.70;;;19.70;99.90;;;;;;5087166;28;20583;-69
2023/07/20 06:40:57;;;;;;;10.05;6.05;;;19.80;99.90;;;;;;5074383;28;20238;-72
2023/07/20 06:44:06;;;;;;;10.10;6.35;;;19.80;99.90;;;;;;5065431;28;20226;-71
2023/07/20 06:46:57;;;;;;;9.40;6.50;;;19.90;99.90;;;;;;5074535;28;20253;-72
2023/07/20 06:49:45;;;;;;;8.60;5.80;;;19.90;99.90;;;;;;5076844;28;20298;-71
2023/07/20 06:52:35;;;;;;;8.10;5.70;;;19.80;99.90;;;;;;5074163;28;20220;-71
2023/07/20 06:55:28;;;;;;;8.65;5.85;;;19.80;99.90;;;;;;5060045;28;20513;-71
2023/07/20 06:58:22;;;;;;;7.88;4.78;;;19.80;99.90;;;;;;5037544;28;20721;-71
2023/07/20 07:01:11;;;;;;;10.80;5.85;;;19.50;99.90;;;;;;5041587;28;20255;-70
2023/07/20 07:04:00;;;;;;;8.48;5.50;;;19.50;99.90;;;;;;5058586;28;20247;-69
2023/07/20 07:06:49;;;;;;;10.13;5.47;;;19.60;99.90;;;;;;5043399;28;20213;-72
2023/07/20 07:09:38;;;;;;;12.27;5.35;;;19.10;99.90;;;;;;5063703;28;20429;-78
2023/07/20 07:12:28;;;;;;;8.70;5.90;;;18.90;99.90;;;;;;5058744;28;20838;-70
2023/07/20 07:15:16;;;;;;;9.70;5.25;;;18.80;99.90;;;;;;5052407;28;20217;-70
2023/07/20 07:18:05;;;;;;;7.63;5.82;;;18.90;99.90;;;;;;5057052;28;20362;-70
2023/07/20 07:20:55;;;;;;;10.95;5.88;;;18.80;99.90;;;;;;5056917;28;20223;-70
2023/07/20 07:23:44;;;;;;;7.97;5.50;;;18.80;99.90;;;;;;5056604;28;20224;-70
2023/07/20 07:26:33;;;;;;;7.60;5.38;;;18.80;99.90;;;;;;5048971;28;20273;-71
2023/07/20 07:29:24;;;;;;;7.75;4.95;;;18.60;99.90;;;;;;5054507;28;20228;-71
2023/07/20 07:32:13;;;;;;;9.68;5.53;;;18.70;99.90;;;;;;5050009;28;20248;-72
2023/07/20 07:35:02;;;;;;;10.88;5.22;;;19.00;99.90;;;;;;5053372;28;20236;-72
2023/07/20 07:37:51;;;;;;;8.18;4.40;;;18.80;99.90;;;;;;5047415;28;20216;-71
2023/07/20 07:41:00;;;;;;;9.50;4.63;;;18.60;99.90;;;;;;5048145;28;20361;-71
2023/07/20 07:43:50;;;;;;;5.22;4.22;;;18.60;99.90;;;;;;5057669;28;20360;-70
2023/07/20 07:46:41;;;;;;;8.25;4.38;;;18.60;99.90;;;;;;5065598;28;20227;-70
2023/07/20 07:49:31;;;;;;;6.22;4.15;;;18.70;99.90;;;;;;5044394;28;20220;-70
2023/07/20 07:52:21;;;;;;;8.75;4.30;;;18.60;99.90;;;;;;5054730;28;20306;-71
2023/07/20 07:55:10;;;;;;;8.48;4.47;;;18.50;99.90;;;;;;5075261;28;20263;-70
2023/07/20 07:57:59;;;;;;;7.50;5.00;;;18.60;99.90;;;;;;5082193;28;20227;-70
2023/07/20 08:00:48;;;;;;;6.43;4.78;;;18.70;99.90;;;;;;5073056;28;20285;-69
2023/07/20 08:03:39;;;;;;;7.15;4.50;;;18.50;99.90;;;;;;5061839;28;20216;-69
2023/07/20 08:06:27;;;;;;;7.68;4.90;;;18.40;99.90;;;;;;5073249;28;20227;-70
2023/07/20 08:09:16;;;;;;;8.07;5.55;;;18.60;99.90;;;;;;5078241;28;20220;-70
2023/07/20 08:12:06;;;;;;;9.40;5.22;;;18.70;99.90;;;;;;5071226;28;20255;-70
2023/07/20 08:14:55;;;;;;;7.88;5.50;;;18.80;99.90;;;;;;5061227;28;20235;-70
2023/07/20 08:17:44;;;;;;;8.75;5.38;;;18.70;99.90;;;;;;5077307;28;20311;-70
2023/07/20 08:20:36;;;;;;;8.85;5.65;;;18.80;99.90;;;;;;5057480;28;20219;-70
2023/07/20 08:23:25;;;;;;;9.73;5.07;;;18.60;99.90;;;;;;5064935;28;20224;-72
2023/07/20 08:26:15;;;;;;;6.85;5.30;;;18.70;99.90;;;;;;5059556;28;20219;-70
2023/07/20 08:29:04;;;;;;;14.73;6.72;;;18.30;99.90;;;;;;5078276;28;20918;-69
2023/07/20 08:31:52;;;;;;;11.32;6.10;;;18.50;99.90;;;;;;5066012;28;20223;-70
2023/07/20 08:34:42;;;;;;;10.70;6.10;;;18.60;99.90;;;;;;5075519;28;20224;-70
2023/07/20 08:37:32;;;;;;;14.20;5.90;;;18.70;99.90;;;;;;5064231;28;20215;-70
2023/07/20 08:40:21;;;;;;;6.75;5.45;;;18.60;99.90;;;;;;5058073;28;20215;-70
2023/07/20 08:43:11;;;;;;;8.18;6.05;;;18.80;99.90;;;;;;5080388;28;20239;-70
2023/07/20 08:46:01;;;;;;;9.20;5.55;;;18.80;99.90;;;;;;5074049;28;20836;-70
2023/07/20 08:48:52;;;;;;;12.80;5.47;;;18.90;99.90;;;;;;5073546;28;20683;-70
2023/07/20 08:51:42;;;;;;;8.07;6.20;;;19.00;99.90;;;;;;5063795;28;20219;-71
2023/07/20 08:54:33;;;;;;;9.32;6.07;;;19.10;99.90;;;;;;5054305;28;20228;-69
2023/07/20 08:57:23;;;;;;;10.75;6.00;;;19.10;99.90;;;;;;5049188;28;20247;-71
2023/07/20 09:00:14;;;;;;;8.63;5.57;;;19.10;99.90;;;;;;5057904;28;20263;-70
2023/07/20 09:03:04;;;;;;;7.32;5.80;;;19.30;99.90;;;;;;5044415;28;20225;-70
2023/07/20 09:05:53;;;;;;;8.00;5.75;;;19.30;99.90;;;;;;5049793;28;20248;-70
2023/07/20 09:08:46;;;;;;;7.38;5.45;;;19.40;99.90;;;;;;5045920;28;20228;-70
2023/07/20 09:11:37;;;;;;;7.00;4.45;;;19.30;99.90;;;;;;5052744;28;20299;-71
2023/07/20 09:14:26;;;;;;;8.38;4.40;;;19.30;99.90;;;;;;5059207;28;20319;-71
2023/07/20 09:17:15;;;;;;;6.95;4.15;;;19.20;99.90;;;;;;5051209;28;20706;-70
2023/07/20 09:20:10;;;;;;;6.22;4.25;;;19.40;99.90;;;;;;5055145;28;20307;-70
2023/07/20 09:22:59;;;;;;;10.00;4.57;;;19.40;99.90;;;;;;5048099;28;20265;-71
2023/07/20 09:25:50;;;;;;;8.23;4.60;;;19.50;99.90;;;;;;5036840;28;20745;-72
2023/07/20 09:28:44;;;;;;;8.88;4.95;;;19.40;99.90;;;;;;5038010;28;20641;-71
2023/07/20 09:31:35;;;;;;;6.80;4.60;;;19.70;99.90;;;;;;5047258;28;20221;-74
2023/07/20 09:34:27;;;;;;;6.75;4.93;;;19.80;99.90;;;;;;5048365;28;20221;-75
2023/07/20 09:37:22;;;;;;;6.03;4.32;;;20.10;99.90;;;;;;5044025;28;20216;-74
2023/07/20 09:40:12;;;;;;;9.73;4.88;;;20.30;99.90;;;;;;5036004;28;20591;-74
2023/07/20 09:43:09;;;;;;;7.40;4.82;;;20.60;99.90;;;;;;5046500;28;20744;-73
2023/07/20 09:46:03;;;;;;;5.53;3.90;;;21.10;99.90;;;;;;5051837;28;20236;-73
2023/07/20 09:48:55;;;;;;;5.50;3.38;;;21.30;99.90;;;;;;5038490;28;20216;-73
2023/07/20 09:51:47;;;;;;;4.97;3.20;;;21.40;99.90;;;;;;5055961;28;20215;-73
2023/07/20 09:54:38;;;;;;;3.88;2.67;;;21.30;99.90;;;;;;5068228;28;20215;-73
2023/07/20 09:57:28;;;;;;;4.75;2.78;;;21.30;99.90;;;;;;5061043;28;20281;-72
2023/07/20 10:00:18;;;;;;;5.30;3.80;;;21.10;99.90;;;;;;5063255;28;20231;-91
2023/07/20 10:03:14;;;;;;;3.80;2.85;;;21.00;99.90;;;;;;5067073;28;20220;-86
2023/07/20 10:06:08;;;;;;;6.07;2.95;;;20.90;99.90;;;;;;5063352;28;20327;-94
2023/07/20 10:09:01;;;;;;;3.08;2.60;;;20.80;99.90;;;;;;5072286;28;20228;-89
2023/07/20 10:11:51;;;;;;;5.50;2.50;;;20.80;99.90;;;;;;5080917;28;20272;-89
2023/07/20 10:15:11;;;;;;;8.38;3.10;;;20.70;99.90;;;;;;5060107;28;20219;-94
2023/07/20 10:18:04;;;;;;;9.18;3.50;;;20.60;99.90;;;;;;5081438;28;20246;-89
2023/07/20 10:20:57;;;;;;;7.60;3.35;;;20.50;99.90;;;;;;5077254;28;20298;-81
2023/07/20 10:23:49;;;;;;;5.00;3.03;;;20.60;99.90;;;;;;5077873;28;20223;-85
2023/07/20 10:26:38;;;;;;;4.30;2.97;;;20.50;99.90;;;;;;5080162;28;20219;-83
2023/07/20 10:29:30;;;;;;;3.80;3.08;;;20.40;99.90;;;;;;5076848;28;20227;-81
2023/07/20 10:32:21;;;;;;;7.20;3.22;;;20.40;99.90;;;;;;5057610;28;20225;-83
2023/07/20 10:35:14;;;;;;;4.32;2.90;;;20.20;99.90;;;;;;5074882;28;20224;-82
2023/07/20 10:38:05;;;;;;;6.50;3.60;;;20.20;99.90;;;;;;5063480;28;20234;-89
2023/07/20 10:40:57;;;;;;;3.55;3.22;;;20.40;99.90;;;;;;5065860;28;20342;-79
2023/07/20 10:43:46;;;;;;;6.38;2.97;;;20.60;99.90;;;;;;5076155;28;20641;-80
2023/07/20 10:46:44;;;;;;;4.53;3.08;;;20.60;99.90;;;;;;5076218;28;21138;-80
2023/07/20 10:49:35;;;;;;;3.53;2.70;;;20.90;99.90;;;;;;5071750;28;20810;-77
2023/07/20 10:52:24;;;;;;;5.88;2.88;;;24.40;99.90;;;;;;5076766;28;20231;-74
2023/07/20 10:55:16;;;;;;;3.10;2.35;;;27.50;99.90;;;;;;5086373;28;20805;-89
2023/07/20 10:58:11;;;;;;;5.97;2.35;;;29.70;99.90;;;;;;5082218;28;20695;-83
2023/07/20 11:01:02;;;;;;;3.55;2.90;;;32.70;98.20;;;;;;5079482;28;20220;-83
2023/07/20 11:03:52;;;;;;;4.57;3.00;;;29.40;97.40;;;;;;5077559;28;20239;-83
2023/07/20 11:06:44;;;;;;;5.95;2.80;;;27.40;97.50;;;;;;5076512;28;20226;-82
2023/07/20 11:09:36;;;;;;;9.88;3.65;;;29.70;99.90;;;;;;5065949;28;20227;-84
2023/07/20 11:12:28;;;;;;;2.70;2.50;;;29.60;95.50;;;;;;5070991;28;20306;-82
2023/07/20 11:15:17;;;;;;;3.20;2.67;;;28.60;94.70;;;;;;5085494;28;20284;-84
2023/07/20 11:18:13;;;;;;;2.70;2.50;;;26.20;97.80;;;;;;5072481;28;20224;-80
2023/07/20 11:21:02;;;;;;;5.45;2.80;;;25.00;99.90;;;;;;5078858;28;20272;-79
2023/07/20 11:23:52;;;;;;;5.15;2.90;;;26.90;99.90;;;;;;5061225;28;20551;-88
2023/07/20 11:26:43;;;;;;;4.75;2.97;;;29.90;96.50;;;;;;5088473;28;20349;-88
2023/07/20 11:29:34;;;;;;;3.42;2.60;;;32.40;94.50;;;;;;5080424;28;20239;-86
2023/07/20 11:32:23;;;;;;;2.55;2.28;;;32.80;90.60;;;;;;5080883;28;20281;-89
2023/07/20 11:35:14;;;;;;;4.68;2.60;;;30.60;92.00;;;;;;5085932;28;20288;-90
2023/07/20 11:38:03;;;;;;;3.60;2.10;;;31.30;91.50;;;;;;5074437;28;20234;-90
2023/07/20 11:40:52;;;;;;;4.38;2.97;;;30.20;91.60;;;;;;5087292;28;20666;-88
2023/07/20 11:43:42;;;;;;;3.17;2.75;;;28.00;94.50;;;;;;5090953;28;20936;-89
2023/07/20 11:46:33;;;;;;;4.22;2.45;;;27.50;95.70;;;;;;5059664;28;20215;-91
2023/07/20 11:49:22;;;;;;;4.10;2.58;;;26.30;97.90;;;;;;5083367;28;20223;-87
2023/07/20 11:52:15;;;;;;;3.30;3.00;;;26.00;99.80;;;;;;5069957;28;20234;-87
2023/07/20 11:55:06;;;;;;;3.53;2.58;;;25.70;99.90;;;;;;5075921;28;20315;-87
2023/07/20 11:58:05;;;;;;;3.10;2.70;;;25.50;99.90;;;;;;5076965;28;20318;-88
2023/07/20 12:00:56;;;;;;;3.78;2.50;;;27.10;99.00;;;;;;5075703;28;20224;-86
2023/07/20 12:03:47;;;;;;;6.35;2.35;;;31.70;96.70;;;;;;5082510;28;20223;-84
2023/07/20 12:06:35;;;;;;;4.65;2.50;;;33.20;87.50;;;;;;5079159;28;20219;-89
2023/07/20 12:09:24;;;;;;;3.53;2.50;;;30.90;90.60;;;;;;5088597;27;20226;-91
2023/07/20 12:12:26;;;;;;;3.42;2.55;;;30.10;92.20;;;;;;5073712;28;20230;-92
2023/07/20 12:15:17;;;;;;;3.05;1.95;;;31.30;93.30;;;;;;5078488;28;20315;-91
2023/07/20 12:18:06;;;;;;;2.55;2.35;;;34.70;85.40;;;;;;5070029;28;20669;-88
2023/07/20 12:21:04;;;;;;;3.08;2.47;;;31.40;84.50;;;;;;5084627;28;20662;-92
2023/07/20 12:23:53;;;;;;;2.97;2.67;;;30.00;90.60;;;;;;5080741;28;20206;-88
2023/07/20 12:26:43;;;;;;;6.43;2.42;;;28.80;91.10;;;;;;5088229;28;20219;-92
2023/07/20 12:29:35;;;;;;;3.63;2.67;;;30.20;91.70;;;;;;5068341;28;20215;-94
2023/07/20 12:32:24;;;;;;;2.42;2.08;;;33.90;85.60;;;;;;5084822;28;20235;-94
2023/07/20 12:35:14;;;;;;;3.20;2.20;;;33.90;79.40;;;;;;5082528;28;20231;-94
2023/07/20 12:38:04;;;;;;;2.25;1.77;;;36.70;74.50;;;;;;5077930;28;20219;-93
2023/07/20 12:40:54;;;;;;;2.25;1.70;;;40.00;67.80;;;;;;5079864;28;20214;-90
2023/07/20 12:43:44;;;;;;;2.70;2.00;;;35.20;70.80;;;;;;5083844;28;20864;-87
2023/07/20 12:46:36;;;;;;;3.05;1.88;;;31.50;79.60;;;;;;5070891;28;20233;-92
2023/07/20 12:49:25;;;;;;;3.78;2.10;;;29.00;89.20;;;;;;5079087;28;20235;-83
2023/07/20 12:52:14;;;;;;;2.60;2.10;;;27.70;91.40;;;;;;5079089;28;20228;-90
2023/07/20 12:55:06;;;;;;;3.47;2.13;;;27.10;91.10;;;;;;5078115;28;20227;-92
2023/07/20 12:57:55;;;;;;;2.78;2.20;;;26.70;94.00;;;;;;5085309;28;20650;-90
2023/07/20 13:00:44;;;;;;;5.55;2.22;;;26.30;94.30;;;;;;5082055;28;20215;-86
2023/07/20 13:03:33;;;;;;;3.45;1.98;;;25.90;93.90;;;;;;5075251;28;20227;-88
2023/07/20 13:06:23;;;;;;;3.33;2.20;;;25.50;95.30;;;;;;5082040;28;20231;-82
2023/07/20 13:09:15;;;;;;;4.60;2.50;;;25.20;95.40;;;;;;5063270;28;20222;-81
2023/07/20 13:12:06;;;;;;;3.55;2.58;;;25.10;97.00;;;;;;5059934;28;20781;-82
2023/07/20 13:14:55;;;;;;;3.03;2.40;;;24.90;97.90;;;;;;5078199;28;20302;-82
2023/07/20 13:17:44;;;;;;;3.10;2.53;;;24.70;98.70;;;;;;5076000;28;20219;-82
2023/07/20 13:20:33;;;;;;;3.60;2.88;;;24.70;99.90;;;;;;5074092;28;20812;-82
2023/07/20 13:23:23;;;;;;;3.83;2.85;;;24.60;98.90;;;;;;5075720;28;20597;-82
2023/07/20 13:26:11;;;;;;;4.15;2.45;;;24.40;98.50;;;;;;5076591;28;20249;-82
2023/07/20 13:29:02;;;;;;;2.80;2.33;;;24.40;99.90;;;;;;5080927;28;20223;-82
2023/07/20 13:31:51;;;;;;;2.80;2.60;;;24.40;99.20;;;;;;5072197;28;20235;-82
2023/07/20 13:34:41;;;;;;;5.45;2.83;;;24.40;99.40;;;;;;5075448;28;20243;-81
2023/07/20 13:37:30;;;;;;;3.60;3.17;;;24.40;99.90;;;;;;5070312;28;20219;-81
2023/07/20 13:40:19;;;;;;;7.22;3.22;;;24.20;99.90;;;;;;5075331;28;20247;-82
2023/07/20 13:43:09;;;;;;;3.63;2.97;;;23.80;99.90;;;;;;5076738;28;20559;-82
2023/07/20 13:45:59;;;;;;;4.30;3.03;;;23.80;99.90;;;;;;5075140;28;20234;-77
2023/07/20 13:48:48;;;;;;;3.53;3.00;;;23.60;99.90;;;;;;5083216;28;20211;-88
2023/07/20 13:51:43;;;;;;;5.45;2.97;;;23.50;99.90;;;;;;5078467;28;20227;-89
2023/07/20 13:54:32;;;;;;;4.28;3.15;;;23.40;99.90;;;;;;5071933;28;20227;-93
2023/07/20 13:57:21;;;;;;;3.80;2.95;;;23.40;99.90;;;;;;5063196;28;20247;-91
2023/07/20 14:00:13;;;;;;;3.83;3.28;;;23.30;99.90;;;;;;5067628;28;20226;-85
2023/07/20 14:03:10;;;;;;;5.55;2.70;;;23.50;99.90;;;;;;5073359;28;20212;-83
2023/07/20 14:06:02;;;;;;;4.53;2.80;;;23.60;99.90;;;;;;5072847;28;20576;-83
2023/07/20 14:08:54;;;;;;;5.32;2.80;;;23.50;99.90;;;;;;5083617;28;21668;-84
2023/07/20 14:11:43;;;;;;;4.65;2.88;;;23.40;99.90;;;;;;5075896;28;20219;-84
2023/07/20 14:14:35;;;;;;;4.35;2.72;;;23.50;99.90;;;;;;5061650;28;20232;-84
2023/07/20 14:17:24;;;;;;;4.13;2.88;;;23.60;99.90;;;;;;5083757;28;20296;-85
2023/07/20 14:20:19;;;;;;;3.58;2.47;;;23.40;99.90;;;;;;5082417;28;20235;-85
2023/07/20 14:23:10;;;;;;;3.05;2.40;;;23.40;99.90;;;;;;5067194;28;20706;-85
2023/07/20 14:25:59;;;;;;;7.40;3.78;;;23.30;99.90;;;;;;5082021;28;20219;-84
2023/07/20 14:28:48;;;;;;;4.78;2.30;;;23.30;99.90;;;;;;5065530;28;20299;-85
2023/07/20 14:31:41;;;;;;;4.68;2.30;;;23.30;99.90;;;;;;5080845;28;20586;-85
2023/07/20 14:34:30;;;;;;;1.80;1.70;;;23.20;99.90;;;;;;5082535;28;20238;-84
2023/07/20 14:37:22;;;;;;;2.88;1.75;;;23.10;99.90;;;;;;5072129;28;20223;-84
2023/07/20 14:40:12;;;;;;;2.65;2.20;;;22.80;99.90;;;;;;5087113;28;20587;-85
2023/07/20 14:43:03;;;;;;;3.15;2.00;;;22.80;99.90;;;;;;5066211;28;20223;-85
2023/07/20 14:45:52;;;;;;;5.13;2.28;;;22.60;99.90;;;;;;5078597;28;20223;-84
2023/07/20 14:48:41;;;;;;;3.05;1.70;;;22.50;99.90;;;;;;5081628;28;20368;-85